Time;durP1;ratioP1;P1;durP2;ratioP2;P2;SDS_P1;SDS_P2;PMS_P1;PMS_P2;Temp;Humidity;BMP_temperature;BMP_pressure;BME280_temperature;BME280_humidity;BME280_pressure;Samples;Min_cycle;Max_cycle;Signal;HPM_P1;HPM_P2
2023/05/14 00:02:10;;;;;;;;;;;;;;;12.00;69.75;92585.50;2055774;70;20079;-75
2023/05/14 00:04:35;;;;;;;;;;;;;;;11.89;70.81;92584.25;2055723;70;20485;-75
2023/05/14 00:07:01;;;;;;;;;;;;;;;11.92;70.22;92574.53;2055648;69;20058;-75
2023/05/14 00:09:29;;;;;;;;;;;;;;;11.85;71.32;92581.19;2055512;70;20500;-76
2023/05/14 00:11:54;;;;;;;;;;;;;;;11.85;70.15;92574.84;2068571;69;20134;-75
2023/05/14 00:14:21;;;;;;;;;;;;;;;11.73;70.91;92574.13;2055291;69;20054;-75
2023/05/14 00:16:47;;;;;;;;;;;;;;;11.80;70.56;92565.38;2055587;70;20081;-75
2023/05/14 00:19:13;;;;;;;;;;;;;;;11.73;70.83;92574.13;2068500;69;20066;-75
2023/05/14 00:21:39;;;;;;;;;;;;;;;11.64;71.69;92570.91;2055468;70;20058;-75
2023/05/14 00:24:05;;;;;;;;;;;;;;;11.60;71.67;92564.31;2055447;70;20500;-74
2023/05/14 00:26:30;;;;;;;;;;;;;;;11.67;71.49;92571.72;2055385;70;20192;-74
2023/05/14 00:28:56;;;;;;;;;;;;;;;11.65;71.31;92561.06;2068474;69;20057;-74
2023/05/14 00:31:22;;;;;;;;;;;;;;;11.56;71.90;92556.34;2055226;70;20054;-75
2023/05/14 00:33:47;;;;;;;;;;;;;;;11.58;71.56;92550.81;2068188;69;20103;-75
2023/05/14 00:36:13;;;;;;;;;;;;;;;11.52;71.04;92558.94;2055360;70;20077;-74
2023/05/14 00:38:39;;;;;;;;;;;;;;;11.60;69.73;92561.47;2054803;70;20062;-75
2023/05/14 00:41:06;;;;;;;;;;;;;;;11.58;71.20;92550.81;2067948;69;20062;-75
2023/05/14 00:43:32;;;;;;;;;;;;;;;11.60;70.37;92553.75;2055211;69;20082;-76
2023/05/14 00:45:57;;;;;;;;;;;;;;;11.56;70.99;92559.16;2055122;70;20523;-74
2023/05/14 00:48:23;;;;;;;;;;;;;;;11.63;70.12;92554.59;2055172;70;20106;-74
2023/05/14 00:50:49;;;;;;;;;;;;;;;11.51;70.80;92551.84;2055416;69;20054;-75
2023/05/14 00:53:15;;;;;;;;;;;;;;;11.47;70.80;92550.88;2068192;69;20480;-77
2023/05/14 00:55:41;;;;;;;;;;;;;;;11.47;70.92;92562.16;2068128;69;20066;-75
2023/05/14 00:58:11;;;;;;;;;;;;;;;11.46;70.58;92555.78;2068263;69;20576;-75
2023/05/14 01:00:37;;;;;;;;;;;;;;;11.36;71.04;92558.78;2068180;69;20492;-76
2023/05/14 01:03:03;;;;;;;;;;;;;;;11.36;71.45;92560.84;2068320;69;20074;-75
2023/05/14 01:05:35;;;;;;;;;;;;;;;11.34;71.11;92550.22;2068436;69;20046;-76
2023/05/14 01:08:10;;;;;;;;;;;;;;;11.31;71.85;92550.72;2068796;69;20145;-75
2023/05/14 01:10:36;;;;;;;;;;;;;;;11.35;71.02;92548.84;2068737;69;20083;-75
2023/05/14 01:13:23;;;;;;;;;;;;;;;11.47;69.97;92545.97;2055617;70;20047;-76
2023/05/14 01:15:48;;;;;;;;;;;;;;;11.45;69.89;92543.78;2055879;69;20050;-75
2023/05/14 01:18:16;;;;;;;;;;;;;;;11.34;70.83;92538.22;2055822;69;20054;-76
2023/05/14 01:20:43;;;;;;;;;;;;;;;11.41;71.27;92537.19;2068816;69;20135;-74
2023/05/14 01:23:08;;;;;;;;;;;;;;;11.48;72.20;92536.16;2055997;70;20058;-74
2023/05/14 01:25:35;;;;;;;;;;;;;;;11.48;71.81;92536.16;2055726;70;20050;-74
2023/05/14 01:28:17;;;;;;;;;;;;;;;11.50;72.64;92547.56;2068698;69;20043;-74
2023/05/14 01:31:04;;;;;;;;;;;;;;;11.51;72.28;92534.94;2055710;70;20047;-74
2023/05/14 01:33:32;;;;;;;;;;;;;;;11.51;71.39;92534.19;2053794;69;20054;-78
2023/05/14 01:35:58;;;;;;;;;;;;;;;11.29;72.68;92531.63;2068525;69;20059;-73
2023/05/14 01:38:24;;;;;;;;;;;;;;;11.06;73.81;92543.72;2068077;69;20412;-75
2023/05/14 01:40:51;;;;;;;;;;;;;;;11.30;72.44;92537.97;2055031;70;20066;-75
2023/05/14 01:43:17;;;;;;;;;;;;;;;11.40;72.05;92542.09;2055166;70;20054;-76
2023/05/14 01:45:43;;;;;;;;;;;;;;;11.40;72.43;92549.81;2048648;70;20125;-75
2023/05/14 01:48:10;;;;;;;;;;;;;;;11.39;72.27;92545.53;2048467;70;20158;-75
2023/05/14 01:50:36;;;;;;;;;;;;;;;11.43;72.18;92543.66;2049411;70;20217;-76
2023/05/14 01:53:02;;;;;;;;;;;;;;;11.47;72.65;92534.72;2046542;70;20464;-76
2023/05/14 01:55:27;;;;;;;;;;;;;;;11.48;73.03;92541.06;2045367;70;20098;-76
2023/05/14 01:57:53;;;;;;;;;;;;;;;11.52;72.82;92535.66;2048746;70;20487;-75
2023/05/14 02:00:21;;;;;;;;;;;;;;;11.59;72.13;92531.81;2048774;70;20058;-75
2023/05/14 02:02:46;;;;;;;;;;;;;;;11.55;72.65;92532.34;2049376;70;20078;-75
2023/05/14 02:05:12;;;;;;;;;;;;;;;11.58;72.77;92533.16;2048808;70;20407;-75
2023/05/14 02:07:38;;;;;;;;;;;;;;;11.64;73.19;92528.59;2048257;70;20124;-73
2023/05/14 02:10:04;;;;;;;;;;;;;;;11.66;72.48;92534.34;2048651;70;20122;-74
2023/05/14 02:12:31;;;;;;;;;;;;;;;11.71;71.79;92529.66;2049116;69;20058;-76
2023/05/14 02:14:57;;;;;;;;;;;;;;;11.67;72.28;92524.50;2049350;70;20079;-75
2023/05/14 02:17:23;;;;;;;;;;;;;;;11.63;72.69;92527.13;2048802;70;20559;-75
2023/05/14 02:19:49;;;;;;;;;;;;;;;11.68;72.80;92528.06;2049439;70;20206;-75
2023/05/14 02:22:14;;;;;;;;;;;;;;;11.69;70.95;92524.63;2048484;69;20047;-75
2023/05/14 02:24:40;;;;;;;;;;;;;;;11.65;73.06;92520.88;2048625;70;20047;-75
2023/05/14 02:27:06;;;;;;;;;;;;;;;11.66;72.77;92525.88;2049467;70;20059;-76
2023/05/14 02:29:34;;;;;;;;;;;;;;;11.76;72.52;92522.13;2049520;70;20054;-77
2023/05/14 02:32:00;;;;;;;;;;;;;;;11.67;72.83;92507.59;2048974;70;20059;-76
2023/05/14 02:34:28;;;;;;;;;;;;;;;11.75;71.41;92515.03;2049032;69;20097;-77
2023/05/14 02:36:55;;;;;;;;;;;;;;;11.58;73.37;92507.78;2049245;69;20066;-76
2023/05/14 02:39:20;;;;;;;;;;;;;;;11.66;73.00;92499.78;2048833;70;20047;-76
2023/05/14 02:41:47;;;;;;;;;;;;;;;11.67;72.52;92507.59;2048950;69;20047;-77
2023/05/14 02:44:15;;;;;;;;;;;;;;;11.69;72.34;92501.34;2051004;70;20054;-77
2023/05/14 02:46:41;;;;;;;;;;;;;;;11.72;72.13;92505.72;2068528;69;20123;-76
2023/05/14 02:49:07;;;;;;;;;;;;;;;11.37;74.13;92497.53;2068797;69;20053;-74
2023/05/14 02:51:33;;;;;;;;;;;;;;;10.48;79.42;92498.88;2068686;69;20102;-76
2023/05/14 02:53:58;;;;;;;;;;;;;;;11.00;76.38;92498.31;2068739;69;20085;-76
2023/05/14 02:56:25;;;;;;;;;;;;;;;11.33;74.61;92494.47;2068550;69;20057;-77
2023/05/14 02:58:51;;;;;;;;;;;;;;;11.45;73.23;92495.13;2068528;69;20111;-77
2023/05/14 03:01:17;;;;;;;;;;;;;;;11.49;73.78;92497.44;2049605;69;20062;-75
2023/05/14 03:03:43;;;;;;;;;;;;;;;11.49;73.33;92486.88;2068552;69;20431;-76
2023/05/14 03:06:08;;;;;;;;;;;;;;;11.57;73.00;92483.78;2068539;69;20046;-75
2023/05/14 03:08:34;;;;;;;;;;;;;;;11.59;72.88;92483.88;2055318;70;20489;-76
2023/05/14 03:11:00;;;;;;;;;;;;;;;11.57;71.95;92478.88;2068408;69;20054;-76
2023/05/14 03:13:28;;;;;;;;;;;;;;;11.63;71.50;92487.63;2055576;70;20130;-76
2023/05/14 03:15:55;;;;;;;;;;;;;;;11.60;71.68;92486.09;2055707;70;20066;-75
2023/05/14 03:18:21;;;;;;;;;;;;;;;11.62;71.86;92488.28;2068797;69;20054;-76
2023/05/14 03:20:48;;;;;;;;;;;;;;;11.53;72.27;92472.28;2056026;69;20082;-75
2023/05/14 03:23:13;;;;;;;;;;;;;;;11.63;71.43;92479.19;2068809;69;20185;-76
2023/05/14 03:25:39;;;;;;;;;;;;;;;11.59;71.59;92476.16;2055682;69;20499;-77
2023/05/14 03:28:04;;;;;;;;;;;;;;;11.44;72.93;92485.94;2055468;70;20081;-76
2023/05/14 03:30:30;;;;;;;;;;;;;;;11.51;71.93;92478.56;2068741;69;20050;-77
2023/05/14 03:32:56;;;;;;;;;;;;;;;11.47;72.93;92475.50;2055541;70;20108;-77
2023/05/14 03:35:21;;;;;;;;;;;;;;;11.59;72.19;92481.06;2055530;69;20058;-77
2023/05/14 03:37:47;;;;;;;;;;;;;;;11.53;73.06;92475.09;2055627;69;20418;-77
2023/05/14 03:40:12;;;;;;;;;;;;;;;11.50;72.63;92470.69;2068488;69;20534;-76
2023/05/14 03:42:38;;;;;;;;;;;;;;;11.48;72.59;92474.16;2068581;69;20443;-77
2023/05/14 03:45:05;;;;;;;;;;;;;;;11.47;72.72;92475.50;2055475;69;20398;-75
2023/05/14 03:47:30;;;;;;;;;;;;;;;11.47;73.20;92469.16;2055698;70;20055;-76
2023/05/14 03:49:58;;;;;;;;;;;;;;;11.44;73.73;92473.94;2068637;69;20224;-75
2023/05/14 03:52:24;;;;;;;;;;;;;;;11.40;73.60;92473.72;2069225;69;20236;-75
2023/05/14 03:54:51;;;;;;;;;;;;;;;11.41;73.31;92481.56;2056756;70;20504;-77
2023/05/14 03:57:17;;;;;;;;;;;;;;;11.48;73.22;92474.16;2069381;69;20062;-76
2023/05/14 03:59:42;;;;;;;;;;;;;;;11.50;72.79;92474.28;2055911;70;20050;-75
2023/05/14 04:02:08;;;;;;;;;;;;;;;11.49;73.45;92469.97;2055810;69;20068;-75
2023/05/14 04:04:33;;;;;;;;;;;;;;;11.45;73.58;92481.78;2065841;69;20063;-75
2023/05/14 04:07:02;;;;;;;;;;;;;;;11.40;73.85;92477.25;2068599;69;20422;-76
2023/05/14 04:09:27;;;;;;;;;;;;;;;11.60;72.99;92474.81;2065774;69;20509;-76
2023/05/14 04:11:53;;;;;;;;;;;;;;;11.61;73.30;92469.91;2055624;70;20110;-76
2023/05/14 04:14:20;;;;;;;;;;;;;;;11.70;72.54;92472.53;2055606;70;20081;-76
2023/05/14 04:16:46;;;;;;;;;;;;;;;11.51;74.29;92472.19;2068565;69;20057;-76
2023/05/14 04:19:12;;;;;;;;;;;;;;;11.49;73.61;92474.88;2065809;69;20054;-75
2023/05/14 04:21:39;;;;;;;;;;;;;;;11.63;72.25;92470.72;2055529;70;20057;-76
2023/05/14 04:24:06;;;;;;;;;;;;;;;11.63;72.86;92470.72;2055445;69;20174;-75
2023/05/14 04:26:32;;;;;;;;;;;;;;;11.58;72.32;92462.69;2068482;69;20498;-76
2023/05/14 04:29:01;;;;;;;;;;;;;;;11.62;72.63;92469.28;2055440;69;20049;-76
2023/05/14 04:31:31;;;;;;;;;;;;;;;11.63;73.05;92461.53;2055459;70;20483;-77
2023/05/14 04:33:56;;;;;;;;;;;;;;;11.62;72.94;92468.53;2055583;70;20046;-76
2023/05/14 04:36:22;;;;;;;;;;;;;;;11.60;73.06;92472.00;2068465;69;20049;-77
2023/05/14 04:38:48;;;;;;;;;;;;;;;11.66;72.72;92468.75;2068426;69;20077;-78
2023/05/14 04:41:13;;;;;;;;;;;;;;;11.64;73.95;92474.31;2055345;69;20170;-77
2023/05/14 04:43:39;;;;;;;;;;;;;;;11.68;73.39;92483.72;2055380;70;20145;-76
2023/05/14 04:46:04;;;;;;;;;;;;;;;11.68;73.04;92488.59;2055500;70;20141;-75
2023/05/14 04:48:30;;;;;;;;;;;;;;;10.87;77.78;92491.28;2055342;70;20050;-75
2023/05/14 04:50:55;;;;;;;;;;;;;;;11.10;76.92;92481.97;2068226;69;20075;-76
2023/05/14 04:53:21;;;;;;;;;;;;;;;11.37;75.07;92489.78;2055206;70;20058;-75
2023/05/14 04:55:46;;;;;;;;;;;;;;;11.61;73.54;92490.38;2055259;69;20135;-75
2023/05/14 04:58:12;;;;;;;;;;;;;;;11.66;73.93;92489.22;2055342;70;20050;-77
2023/05/14 05:00:39;;;;;;;;;;;;;;;11.71;73.20;92484.53;2055291;70;20049;-77
2023/05/14 05:03:05;;;;;;;;;;;;;;;11.84;73.14;92483.13;2055415;70;20050;-76
2023/05/14 05:05:30;;;;;;;;;;;;;;;11.81;73.31;92476.59;2068257;69;20145;-77
2023/05/14 05:07:55;;;;;;;;;;;;;;;11.85;72.88;92473.28;2055259;70;20050;-77
2023/05/14 05:10:21;;;;;;;;;;;;;;;11.89;72.14;92474.22;2055188;70;20123;-77
2023/05/14 05:12:46;;;;;;;;;;;;;;;11.91;72.88;92480.00;2055176;70;20046;-77
2023/05/14 05:15:12;;;;;;;;;;;;;;;11.94;73.42;92470.28;2068215;69;20051;-77
2023/05/14 05:17:39;;;;;;;;;;;;;;;11.96;73.40;92478.13;2055164;70;20078;-76
2023/05/14 05:20:08;;;;;;;;;;;;;;;11.95;73.20;92479.47;2055272;70;20085;-75
2023/05/14 05:22:35;;;;;;;;;;;;;;;12.05;71.96;92480.00;2055334;70;20093;-75
2023/05/14 05:25:05;;;;;;;;;;;;;;;12.16;70.64;92478.44;2055278;69;20058;-75
2023/05/14 05:27:31;;;;;;;;;;;;;;;12.19;72.07;92480.72;2065600;69;20058;-75
2023/05/14 05:29:56;;;;;;;;;;;;;;;12.20;71.12;92478.63;2055218;70;20066;-77
2023/05/14 05:32:22;;;;;;;;;;;;;;;11.70;73.14;92477.44;2068228;69;20050;-76
2023/05/14 05:34:47;;;;;;;;;;;;;;;11.78;72.70;92474.31;2055106;70;20123;-76
2023/05/14 05:37:14;;;;;;;;;;;;;;;11.89;73.81;92479.88;2068162;69;20081;-77
2023/05/14 05:39:39;;;;;;;;;;;;;;;11.97;72.55;92481.66;2055131;69;20093;-77
2023/05/14 05:42:05;;;;;;;;;;;;;;;12.09;73.06;92487.94;2055157;69;20478;-77
2023/05/14 05:44:31;;;;;;;;;;;;;;;12.13;73.20;92483.22;2055086;70;20065;-77
2023/05/14 05:46:58;;;;;;;;;;;;;;;12.30;72.22;92487.63;2055150;70;20382;-77
2023/05/14 05:49:25;;;;;;;;;;;;;;;12.60;71.77;92493.31;2055443;70;20074;-75
2023/05/14 05:51:52;;;;;;;;;;;;;;;12.77;71.04;92489.22;2055980;70;20485;-76
2023/05/14 05:54:17;;;;;;;;;;;;;;;12.39;71.74;92486.66;2056368;70;20157;-78
2023/05/14 05:56:43;;;;;;;;;;;;;;;12.70;71.43;92486.09;2056290;70;20185;-76
2023/05/14 05:59:09;;;;;;;;;;;;;;;12.75;71.09;92491.97;2056031;70;20133;-77
2023/05/14 06:01:34;;;;;;;;;;;;;;;12.34;72.75;92479.34;2056801;69;20042;-77
2023/05/14 06:03:59;;;;;;;;;;;;;;;12.82;70.95;92483.13;2057138;70;20054;-75
2023/05/14 06:06:25;;;;;;;;;;;;;;;12.91;69.63;92485.00;2056233;70;20074;-77
2023/05/14 06:08:50;;;;;;;;;;;;;;;12.84;69.84;92482.50;2055888;70;20049;-76
2023/05/14 06:11:17;;;;;;;;;;;;;;;13.03;68.36;92486.97;2055702;70;20052;-77
2023/05/14 06:13:44;;;;;;;;;;;;;;;13.32;67.02;92489.78;2055707;70;20066;-76
2023/05/14 06:16:09;;;;;;;;;;;;;;;12.86;69.72;92488.25;2055921;70;20050;-76
2023/05/14 06:18:36;;;;;;;;;;;;;;;13.09;68.43;92487.97;2068713;69;20053;-75
2023/05/14 06:21:02;;;;;;;;;;;;;;;13.04;69.04;92485.59;2069018;69;20042;-76
2023/05/14 06:23:28;;;;;;;;;;;;;;;12.95;69.31;92485.19;2069296;69;20058;-75
2023/05/14 06:25:53;;;;;;;;;;;;;;;12.37;72.52;92486.56;2056413;69;20066;-75
2023/05/14 06:28:19;;;;;;;;;;;;;;;12.39;73.13;92491.59;2056125;70;20397;-75
2023/05/14 06:30:44;;;;;;;;;;;;;;;12.41;72.79;92492.41;2056342;69;20050;-75
2023/05/14 06:33:12;;;;;;;;;;;;;;;12.24;73.48;92487.31;2056009;70;20062;-74
2023/05/14 06:35:38;;;;;;;;;;;;;;;12.28;72.28;92487.53;2055733;70;20141;-77
2023/05/14 06:38:04;;;;;;;;;;;;;;;12.12;74.32;92478.94;2055685;69;20145;-77
2023/05/14 06:40:30;;;;;;;;;;;;;;;12.76;71.83;92479.28;2055507;70;20079;-78
2023/05/14 06:42:56;;;;;;;;;;;;;;;12.95;71.52;92478.81;2055748;69;20050;-77
2023/05/14 06:45:21;;;;;;;;;;;;;;;12.45;73.42;92484.13;2055606;69;20054;-77
2023/05/14 06:47:47;;;;;;;;;;;;;;;12.32;73.88;92470.78;2055498;70;20067;-76
2023/05/14 06:50:13;;;;;;;;;;;;;;;11.70;76.63;92468.97;2055538;70;20054;-76
2023/05/14 06:52:40;;;;;;;;;;;;;;;12.54;74.14;92473.25;2055588;70;20077;-76
2023/05/14 06:55:06;;;;;;;;;;;;;;;12.83;73.25;92473.31;2055407;70;20429;-74
2023/05/14 06:57:32;;;;;;;;;;;;;;;13.63;70.66;92477.81;2055541;70;20077;-74
2023/05/14 06:59:58;;;;;;;;;;;;;;;14.16;68.95;92474.53;2068478;69;20576;-74
2023/05/14 07:02:23;;;;;;;;;;;;;;;14.44;68.35;92469.34;2055435;70;20109;-77
2023/05/14 07:04:49;;;;;;;;;;;;;;;14.11;66.82;92469.31;2055507;70;20586;-74
2023/05/14 07:07:17;;;;;;;;;;;;;;;14.31;67.89;92464.53;2055428;70;20386;-77
2023/05/14 07:09:42;;;;;;;;;;;;;;;14.31;68.35;92460.97;2055329;70;20156;-77
2023/05/14 07:12:08;;;;;;;;;;;;;;;14.07;67.37;92466.31;2055323;69;20533;-76
2023/05/14 07:14:33;;;;;;;;;;;;;;;13.80;66.62;92456.66;2055552;69;20566;-74
2023/05/14 07:16:59;;;;;;;;;;;;;;;13.93;65.82;92458.66;2055456;70;20488;-75
2023/05/14 07:19:27;;;;;;;;;;;;;;;13.44;66.91;92461.38;2068425;69;20070;-75
2023/05/14 07:21:54;;;;;;;;;;;;;;;13.43;66.44;92451.44;2068124;69;20074;-76
2023/05/14 07:24:19;;;;;;;;;;;;;;;13.94;65.71;92448.78;2055422;70;20422;-75
2023/05/14 07:26:45;;;;;;;;;;;;;;;14.09;66.01;92444.47;2055454;69;20505;-74
2023/05/14 07:29:10;;;;;;;;;;;;;;;14.42;64.87;92448.69;2055551;69;20046;-75
2023/05/14 07:31:37;;;;;;;;;;;;;;;14.75;63.65;92436.66;2055463;70;20050;-75
2023/05/14 07:34:02;;;;;;;;;;;;;;;14.47;63.44;92439.72;2055441;70;20455;-74
2023/05/14 07:36:28;;;;;;;;;;;;;;;14.49;63.88;92434.19;2055395;69;20488;-75
2023/05/14 07:38:53;;;;;;;;;;;;;;;13.88;65.81;92436.44;2055378;69;20502;-75
2023/05/14 07:41:18;;;;;;;;;;;;;;;13.93;65.89;92429.63;2068257;69;20147;-74
2023/05/14 07:43:44;;;;;;;;;;;;;;;13.66;65.17;92422.06;2055413;70;20063;-74
2023/05/14 07:46:10;;;;;;;;;;;;;;;14.04;63.99;92413.81;2055483;70;20486;-73
2023/05/14 07:48:36;;;;;;;;;;;;;;;13.52;64.96;92424.97;2055597;69;20062;-74
2023/05/14 07:51:02;;;;;;;;;;;;;;;13.70;64.52;92422.97;2055358;70;20050;-74
2023/05/14 07:53:28;;;;;;;;;;;;;;;13.95;64.27;92421.22;2055439;70;20086;-74
2023/05/14 07:55:54;;;;;;;;;;;;;;;14.01;63.83;92420.75;2055259;69;20493;-74
2023/05/14 07:58:21;;;;;;;;;;;;;;;14.23;64.46;92411.13;2055294;70;20470;-74
2023/05/14 08:00:48;;;;;;;;;;;;;;;14.84;63.09;92407.28;2068270;69;20094;-74
2023/05/14 08:03:13;;;;;;;;;;;;;;;15.13;61.75;92400.63;2055497;70;20149;-73
2023/05/14 08:05:39;;;;;;;;;;;;;;;15.09;61.65;92406.16;2068463;69;20061;-75
2023/05/14 08:08:04;;;;;;;;;;;;;;;15.02;61.34;92403.72;2068563;69;20131;-76
2023/05/14 08:10:30;;;;;;;;;;;;;;;15.58;60.19;92404.44;2055336;69;20094;-75
2023/05/14 08:12:55;;;;;;;;;;;;;;;15.46;60.38;92405.44;2055547;69;20078;-76
2023/05/14 08:15:23;;;;;;;;;;;;;;;15.43;57.50;92398.22;2055520;70;20502;-75
2023/05/14 08:17:48;;;;;;;;;;;;;;;15.31;58.14;92394.94;2055352;70;20082;-75
2023/05/14 08:20:14;;;;;;;;;;;;;;;15.59;57.48;92392.47;2055286;70;20066;-76
2023/05/14 08:22:40;;;;;;;;;;;;;;;15.83;57.46;92392.66;2068364;69;20058;-76
2023/05/14 08:25:06;;;;;;;;;;;;;;;15.82;57.40;92382.69;2068311;69;20053;-76
2023/05/14 08:27:32;;;;;;;;;;;;;;;15.90;58.41;92379.41;2055505;70;20050;-77
2023/05/14 08:29:58;;;;;;;;;;;;;;;16.00;57.84;92377.66;2055485;70;20146;-74
2023/05/14 08:32:24;;;;;;;;;;;;;;;16.22;56.96;92385.53;2068421;69;20145;-75
2023/05/14 08:34:52;;;;;;;;;;;;;;;15.59;56.67;92377.53;2055392;70;20051;-76
2023/05/14 08:37:17;;;;;;;;;;;;;;;15.37;57.76;92372.47;2055360;69;20203;-76
2023/05/14 08:39:43;;;;;;;;;;;;;;;15.81;56.85;92374.84;2055245;69;20153;-77
2023/05/14 08:42:11;;;;;;;;;;;;;;;15.92;56.52;92373.81;2055386;70;20072;-77
2023/05/14 08:44:52;;;;;;;;;;;;;;;16.07;56.81;92372.91;2055285;70;20049;-75
2023/05/14 08:47:20;;;;;;;;;;;;;;;15.94;56.53;92373.88;2068316;69;20486;-77
2023/05/14 08:49:46;;;;;;;;;;;;;;;15.55;55.09;92366.03;2065569;69;20053;-75
2023/05/14 08:52:12;;;;;;;;;;;;;;;15.80;56.97;92365.56;2055359;70;20133;-76
2023/05/14 08:54:39;;;;;;;;;;;;;;;16.52;56.04;92363.81;2055269;70;20466;-75
2023/05/14 08:57:05;;;;;;;;;;;;;;;15.76;56.60;92368.28;2068384;69;20548;-76
2023/05/14 08:59:30;;;;;;;;;;;;;;;16.85;54.84;92367.75;2055315;70;20050;-75
2023/05/14 09:01:57;;;;;;;;;;;;;;;16.93;54.19;92365.16;2055359;70;20551;-75
2023/05/14 09:04:23;;;;;;;;;;;;;;;16.94;53.81;92363.78;2065516;69;20499;-75
2023/05/14 09:06:52;;;;;;;;;;;;;;;16.35;55.35;92352.56;2055295;70;20054;-76
2023/05/14 09:09:22;;;;;;;;;;;;;;;16.95;54.12;92345.34;2068186;69;20047;-77
2023/05/14 09:11:52;;;;;;;;;;;;;;;16.81;54.66;92353.41;2068216;69;20089;-77
2023/05/14 09:14:18;;;;;;;;;;;;;;;17.15;52.30;92353.78;2055549;69;20074;-77
2023/05/14 09:16:44;;;;;;;;;;;;;;;17.19;52.35;92356.75;2055389;70;20046;-76
2023/05/14 09:19:09;;;;;;;;;;;;;;;17.66;51.29;92351.72;2055290;69;20062;-77
2023/05/14 09:21:35;;;;;;;;;;;;;;;18.05;50.93;92347.88;2068194;69;20085;-76
2023/05/14 09:24:00;;;;;;;;;;;;;;;18.11;51.89;92336.66;2068277;69;20104;-77
2023/05/14 09:26:30;;;;;;;;;;;;;;;17.89;49.42;92330.34;2068264;69;20090;-77
2023/05/14 09:28:56;;;;;;;;;;;;;;;18.11;50.30;92325.25;2068784;69;20050;-77
2023/05/14 09:31:24;;;;;;;;;;;;;;;18.47;48.81;92324.78;2055743;70;20506;-76
2023/05/14 09:33:50;;;;;;;;;;;;;;;18.55;47.58;92330.66;2055763;69;20042;-76
2023/05/14 09:36:16;;;;;;;;;;;;;;;17.65;47.92;92321.81;2068601;69;20120;-76
2023/05/14 09:38:41;;;;;;;;;;;;;;;17.71;47.67;92322.69;2055793;69;20055;-76
2023/05/14 09:41:07;;;;;;;;;;;;;;;17.68;48.34;92326.16;2055686;69;20086;-76
2023/05/14 09:43:34;;;;;;;;;;;;;;;18.75;48.06;92310.53;2055943;69;20584;-76
2023/05/14 09:46:01;;;;;;;;;;;;;;;18.04;48.64;92310.13;2068521;69;20078;-77
2023/05/14 09:48:27;;;;;;;;;;;;;;;18.66;46.68;92312.41;2055925;70;20204;-77
2023/05/14 09:50:53;;;;;;;;;;;;;;;19.97;47.04;92307.50;2055929;70;20458;-77
2023/05/14 09:53:19;;;;;;;;;;;;;;;19.29;48.08;92302.53;2057516;70;20043;-76
2023/05/14 09:55:46;;;;;;;;;;;;;;;17.87;48.79;92294.00;2056919;70;20097;-77
2023/05/14 09:58:15;;;;;;;;;;;;;;;18.67;48.13;92293.19;2069681;69;20550;-78
2023/05/14 10:00:45;;;;;;;;;;;;;;;18.11;49.64;92290.34;2056521;70;20039;-78
2023/05/14 10:03:16;;;;;;;;;;;;;;;18.52;48.90;92286.41;2056933;69;20074;-77
2023/05/14 10:05:41;;;;;;;;;;;;;;;18.90;48.61;92278.09;2056600;70;20050;-76
2023/05/14 10:08:10;;;;;;;;;;;;;;;17.63;49.87;92282.63;2056137;69;20115;-75
2023/05/14 10:10:36;;;;;;;;;;;;;;;17.52;49.44;92284.47;2055636;70;20204;-76
2023/05/14 10:13:03;;;;;;;;;;;;;;;16.88;50.82;92281.16;2055664;69;20093;-77
2023/05/14 10:15:32;;;;;;;;;;;;;;;17.83;49.34;92284.63;2055601;70;20062;-77
2023/05/14 10:18:02;;;;;;;;;;;;;;;16.72;50.87;92274.94;2055716;70;20061;-76
2023/05/14 10:20:28;;;;;;;;;;;;;;;17.02;50.53;92267.34;2056035;70;20489;-76
2023/05/14 10:22:55;;;;;;;;;;;;;;;17.76;49.02;92272.34;2056732;70;20087;-76
2023/05/14 10:25:20;;;;;;;;;;;;;;;17.79;49.85;92262.47;2056456;70;20050;-76
2023/05/14 10:27:46;;;;;;;;;;;;;;;17.70;48.71;92270.03;2056915;70;20050;-77
2023/05/14 10:30:13;;;;;;;;;;;;;;;17.90;49.64;92264.16;2057809;70;20058;-78
2023/05/14 10:32:40;;;;;;;;;;;;;;;16.97;49.79;92253.69;2059321;70;20049;-77
2023/05/14 10:35:24;;;;;;;;;;;;;;;17.54;48.64;92253.19;2059152;70;20074;-77
2023/05/14 10:37:50;;;;;;;;;;;;;;;17.35;48.81;92254.09;2071490;69;20115;-78
2023/05/14 10:40:17;;;;;;;;;;;;;;;17.53;49.44;92246.06;2055588;70;20491;-77
2023/05/14 10:42:45;;;;;;;;;;;;;;;17.62;49.24;92249.88;2055905;69;20054;-77
2023/05/14 10:45:11;;;;;;;;;;;;;;;19.60;46.08;92233.91;2055707;70;20414;-77
2023/05/14 10:47:39;;;;;;;;;;;;;;;19.66;44.66;92226.25;2055834;69;20050;-77
2023/05/14 10:50:06;;;;;;;;;;;;;;;22.20;39.85;92220.03;2055569;70;20527;-77
2023/05/14 10:52:32;;;;;;;;;;;;;;;21.37;41.85;92225.50;2060917;69;20057;-76
2023/05/14 10:54:59;;;;;;;;;;;;;;;24.27;36.92;92217.03;2075000;69;20052;-77
2023/05/14 10:57:31;;;;;;;;;;;;;;;27.36;31.76;92220.34;2071954;69;20055;-77
2023/05/14 10:59:57;;;;;;;;;;;;;;;27.89;32.02;92224.16;2075263;69;20048;-78
2023/05/14 11:02:26;;;;;;;;;;;;;;;32.04;25.66;92215.56;2075091;69;20052;-78
2023/05/14 11:05:02;;;;;;;;;;;;;;;33.01;25.09;92213.50;2075101;69;20056;-76
2023/05/14 11:07:31;;;;;;;;;;;;;;;29.53;27.62;92205.88;2075218;69;20044;-76
2023/05/14 11:09:58;;;;;;;;;;;;;;;26.05;31.39;92188.78;2075056;69;20467;-77
2023/05/14 11:12:26;;;;;;;;;;;;;;;24.49;32.31;92178.25;2074921;69;20060;-76
2023/05/14 11:14:51;;;;;;;;;;;;;;;23.28;35.16;92174.97;2075088;69;20051;-75
2023/05/14 11:17:17;;;;;;;;;;;;;;;23.37;34.23;92175.00;2071730;69;20044;-75
2023/05/14 11:19:43;;;;;;;;;;;;;;;23.33;35.39;92164.25;2071579;69;20055;-76
2023/05/14 11:22:12;;;;;;;;;;;;;;;28.87;26.74;92171.47;2075087;69;20185;-76
2023/05/14 11:24:38;;;;;;;;;;;;;;;28.81;28.38;92169.38;2075181;69;20044;-77
2023/05/14 11:27:04;;;;;;;;;;;;;;;22.66;33.27;92160.91;2074816;69;20104;-77
2023/05/14 11:29:29;;;;;;;;;;;;;;;23.45;33.32;92152.06;2075129;69;20044;-77
2023/05/14 11:31:55;;;;;;;;;;;;;;;23.62;32.84;92156.44;2071931;69;20075;-75
2023/05/14 11:34:20;;;;;;;;;;;;;;;22.33;34.17;92152.78;2075099;69;20139;-76
2023/05/14 11:36:46;;;;;;;;;;;;;;;22.52;33.76;92153.66;2062080;69;20177;-75
2023/05/14 11:39:18;;;;;;;;;;;;;;;21.55;34.41;92139.81;2058139;69;20060;-76
2023/05/14 11:41:44;;;;;;;;;;;;;;;24.39;31.64;92143.75;2068477;69;20533;-76
2023/05/14 11:44:10;;;;;;;;;;;;;;;21.74;35.04;92137.16;2061696;69;20054;-75
2023/05/14 11:46:37;;;;;;;;;;;;;;;22.56;34.30;92139.34;2058742;69;20093;-75
2023/05/14 11:49:05;;;;;;;;;;;;;;;27.00;30.07;92142.69;2058596;69;20046;-76
2023/05/14 11:51:32;;;;;;;;;;;;;;;29.32;25.42;92133.78;2071495;69;20402;-75
2023/05/14 11:53:58;;;;;;;;;;;;;;;29.65;26.75;92135.38;2058642;69;20057;-75
2023/05/14 11:56:23;;;;;;;;;;;;;;;29.06;26.34;92134.25;2058759;69;20050;-77
2023/05/14 11:58:54;;;;;;;;;;;;;;;27.89;26.29;92122.94;2069071;69;20133;-77
2023/05/14 12:01:19;;;;;;;;;;;;;;;23.73;31.48;92112.00;2058689;69;20119;-76
2023/05/14 12:03:45;;;;;;;;;;;;;;;23.63;31.75;92116.94;2058669;69;20085;-76
2023/05/14 12:06:12;;;;;;;;;;;;;;;22.83;34.04;92113.72;2071810;69;20085;-75
2023/05/14 12:08:37;;;;;;;;;;;;;;;22.79;33.46;92114.41;2058823;69;20137;-76
2023/05/14 12:11:04;;;;;;;;;;;;;;;22.10;34.70;92127.47;2071548;69;20126;-76
2023/05/14 12:13:30;;;;;;;;;;;;;;;20.17;38.65;92126.44;2058626;69;20081;-76
2023/05/14 12:15:57;;;;;;;;;;;;;;;20.34;38.82;92127.41;2058679;69;20547;-76
2023/05/14 12:18:29;;;;;;;;;;;;;;;19.79;37.35;92135.78;2058683;69;20057;-75
2023/05/14 12:20:55;;;;;;;;;;;;;;;19.69;37.67;92135.63;2058721;69;20069;-75
2023/05/14 12:23:25;;;;;;;;;;;;;;;19.30;39.62;92155.56;2058767;69;20077;-75
2023/05/14 12:25:51;;;;;;;;;;;;;;;19.11;42.10;92155.91;2068862;69;20141;-75
2023/05/14 12:28:17;;;;;;;;;;;;;;;18.36;42.07;92157.78;2058710;69;20050;-76
2023/05/14 12:30:46;;;;;;;;;;;;;;;18.16;42.95;92169.44;2071642;69;20504;-75
2023/05/14 12:33:13;;;;;;;;;;;;;;;17.55;45.80;92151.50;2058760;69;20131;-75
2023/05/14 12:35:39;;;;;;;;;;;;;;;17.41;42.45;92151.84;2058720;69;20054;-76
2023/05/14 12:38:05;;;;;;;;;;;;;;;16.59;46.82;92168.69;2071640;69;20135;-77
2023/05/14 12:40:30;;;;;;;;;;;;;;;17.70;46.68;92167.56;2058711;69;20594;-75
2023/05/14 12:42:59;;;;;;;;;;;;;;;17.30;43.81;92170.03;2058698;69;20510;-76
2023/05/14 12:45:24;;;;;;;;;;;;;;;17.57;41.95;92159.38;2058678;69;20133;-82